Time;durP1;ratioP1;P1;durP2;ratioP2;P2;SDS_P1;SDS_P2;PMS_P1;PMS_P2;Temp;Humidity;BMP_temperature;BMP_pressure;BME280_temperature;BME280_humidity;BME280_pressure;Samples;Min_cycle;Max_cycle;Signal;HPM_P1;HPM_P2
2022/02/13 00:01:36;;;;;;;;;;;;;;;;;;5015212;28;19988;-52
2022/02/13 00:04:01;;;;;;;;;;;;;;;;;;5012928;28;19917;-52
2022/02/13 00:06:27;;;;;;;;;;;;;;;;;;5012820;28;19917;-53
2022/02/13 00:08:53;;;;;;;;;;;;;;;;;;5012452;28;20441;-53
2022/02/13 00:11:18;;;;;;;;;;;;;;;;;;5014538;28;20000;-53
2022/02/13 00:13:43;;;;;;;;;;;;;;;;;;5016297;28;19909;-54
2022/02/13 00:16:08;;;;;;;;;;;;;;;;;;5015401;28;19910;-51
2022/02/13 00:18:34;;;;;;;;;;;;;;;;;;5015001;28;19978;-52
2022/02/13 00:20:59;;;;;;;;;;;;;;;;;;5014454;28;19920;-53
2022/02/13 00:23:24;;;;;;;;;;;;;;;;;;5015659;28;20358;-51
2022/02/13 00:25:49;;;;;;;;;;;;;;;;;;5012399;28;19916;-54
2022/02/13 00:28:15;;;;;;;;;;;;;;;;;;5015444;28;20027;-52
2022/02/13 00:30:46;;;;;;;;;;;;;;;;;;5015773;28;20072;-54
2022/02/13 00:33:11;;;;;;;;;;;;;;;;;;5016964;28;19987;-53
2022/02/13 00:35:36;;;;;;;;;;;;;;;;;;5014059;28;19909;-53
2022/02/13 00:38:01;;;;;;;;;;;;;;;;;;5016149;28;19912;-52
2022/02/13 00:40:27;;;;;;;;;;;;;;;;;;5017291;28;20293;-50
2022/02/13 00:42:52;;;;;;;;;;;;;;;;;;5015731;28;19967;-54
2022/02/13 00:45:18;;;;;;;;;;;;;;;;;;5013577;28;19905;-52
2022/02/13 00:47:43;;;;;;;;;;;;;;;;;;5017849;28;20355;-53
2022/02/13 00:50:08;;;;;;;;;;;;;;;;;;5017687;28;20296;-47
2022/02/13 00:52:33;;;;;;;;;;;;;;;;;;5020278;28;19915;-50
2022/02/13 00:54:59;;;;;;;;;;;;;;;;;;5017677;28;19924;-46
2022/02/13 00:57:24;;;;;;;;;;;;;;;;;;5017108;28;19944;-50
2022/02/13 00:59:49;;;;;;;;;;;;;;;;;;5018645;28;19952;-52
2022/02/13 01:02:14;;;;;;;;;;;;;;;;;;5018700;28;19917;-53
2022/02/13 01:04:39;;;;;;;;;;;;;;;;;;5017062;28;19960;-52
2022/02/13 01:07:05;;;;;;;;;;;;;;;;;;5018506;28;20494;-52
2022/02/13 01:09:30;;;;;;;;;;;;;;;;;;5017696;28;19920;-47
2022/02/13 01:11:55;;;;;;;;;;;;;;;;;;5018044;28;19950;-52
2022/02/13 01:14:20;;;;;;;;;;;;;;;;;;5018423;28;19912;-50
2022/02/13 01:16:45;;;;;;;;;;;;;;;;;;5015562;28;19909;-49
2022/02/13 01:19:11;;;;;;;;;;;;;;;;;;5019657;28;19968;-51
2022/02/13 01:21:36;;;;;;;;;;;;;;;;;;5018716;28;19909;-50
2022/02/13 01:24:01;;;;;;;;;;;;;;;;;;5020412;28;20312;-49
2022/02/13 01:26:26;;;;;;;;;;;;;;;;;;5014737;28;19909;-49
2022/02/13 01:28:51;;;;;;;;;;;;;;;;;;5018586;28;19959;-51
2022/02/13 01:31:16;;;;;;;;;;;;;;;;;;5016362;28;19909;-52
2022/02/13 01:33:42;;;;;;;;;;;;;;;;;;5015674;28;20425;-49
2022/02/13 01:36:08;;;;;;;;;;;;;;;;;;5016612;28;19909;-51
2022/02/13 01:38:33;;;;;;;;;;;;;;;;;;5018052;28;19921;-53
2022/02/13 01:40:58;;;;;;;;;;;;;;;;;;5015485;28;20027;-52
2022/02/13 01:43:23;;;;;;;;;;;;;;;;;;5020422;28;20215;-50
2022/02/13 01:45:48;;;;;;;;;;;;;;;;;;5015770;28;19909;-54
2022/02/13 01:48:14;;;;;;;;;;;;;;;;;;5017374;28;20014;-50
2022/02/13 01:50:39;;;;;;;;;;;;;;;;;;5019379;28;20383;-54
2022/02/13 01:53:04;;;;;;;;;;;;;;;;;;5015664;28;20200;-49
2022/02/13 01:55:29;;;;;;;;;;;;;;;;;;5015818;28;19999;-50
2022/02/13 01:57:57;;;;;;;;;;;;;;;;;;5015413;28;19909;-52
2022/02/13 02:00:22;;;;;;;;;;;;;;;;;;5017229;28;19906;-51
2022/02/13 02:02:47;;;;;;;;;;;;;;;;;;5014921;28;19916;-53
2022/02/13 02:05:12;;;;;;;;;;;;;;;;;;5017695;28;20003;-52
2022/02/13 02:07:37;;;;;;;;;;;;;;;;;;5016209;28;19913;-48
2022/02/13 02:10:02;;;;;;;;;;;;;;;;;;5015461;28;19912;-50
2022/02/13 02:12:27;;;;;;;;;;;;;;;;;;5017330;28;20322;-48
2022/02/13 02:14:53;;;;;;;;;;;;;;;;;;5017098;28;19910;-48
2022/02/13 02:17:18;;;;;;;;;;;;;;;;;;5012734;28;19910;-52
2022/02/13 02:19:43;;;;;;;;;;;;;;;;;;5013668;28;20001;-51
2022/02/13 02:22:08;;;;;;;;;;;;;;;;;;5015286;28;20366;-46
2022/02/13 02:24:33;;;;;;;;;;;;;;;;;;5016488;28;20347;-51
2022/02/13 02:27:00;;;;;;;;;;;;;;;;;;5010659;28;20393;-51
2022/02/13 02:29:25;;;;;;;;;;;;;;;;;;5015984;28;19909;-52
2022/02/13 02:31:50;;;;;;;;;;;;;;;;;;5014043;28;19983;-52
2022/02/13 02:34:16;;;;;;;;;;;;;;;;;;5015867;28;20394;-52
2022/02/13 02:36:41;;;;;;;;;;;;;;;;;;5016621;28;20409;-51
2022/02/13 02:39:11;;;;;;;;;;;;;;;;;;5014925;28;19909;-51
2022/02/13 02:41:39;;;;;;;;;;;;;;;;;;5017832;28;19978;-49
2022/02/13 02:44:04;;;;;;;;;;;;;;;;;;5017333;28;20049;-51
2022/02/13 02:46:32;;;;;;;;;;;;;;;;;;5014116;28;20390;-51
2022/02/13 02:49:12;;;;;;;;;;;;;;;;;;5013450;28;19928;-48
2022/02/13 02:51:37;;;;;;;;;;;;;;;;;;5013563;28;19959;-51
2022/02/13 02:54:03;;;;;;;;;;;;;;;;;;5014071;28;19913;-53
2022/02/13 02:56:28;;;;;;;;;;;;;;;;;;5016681;28;19937;-52
2022/02/13 02:58:53;;;;;;;;;;;;;;;;;;5015148;28;20216;-50
2022/02/13 03:01:21;;;;;;;;;;;;;;;;;;5013794;28;19909;-53
2022/02/13 03:03:46;;;;;;;;;;;;;;;;;;5014391;28;20298;-53
2022/02/13 03:06:11;;;;;;;;;;;;;;;;;;5015877;28;19905;-53
2022/02/13 03:08:36;;;;;;;;;;;;;;;;;;5017169;28;19906;-50
2022/02/13 03:11:01;;;;;;;;;;;;;;;;;;5015297;28;19909;-50
2022/02/13 03:13:27;;;;;;;;;;;;;;;;;;5016284;28;20318;-49
2022/02/13 03:15:52;;;;;;;;;;;;;;;;;;5016153;28;19915;-51
2022/02/13 03:18:18;;;;;;;;;;;;;;;;;;5015321;28;20349;-51
2022/02/13 03:20:43;;;;;;;;;;;;;;;;;;5014522;28;19951;-53
2022/02/13 03:23:08;;;;;;;;;;;;;;;;;;5015404;28;19905;-50
2022/02/13 03:25:33;;;;;;;;;;;;;;;;;;5016359;28;19932;-51
2022/02/13 03:27:58;;;;;;;;;;;;;;;;;;5013747;28;19909;-53
2022/02/13 03:30:23;;;;;;;;;;;;;;;;;;5015375;28;19905;-51
2022/02/13 03:32:49;;;;;;;;;;;;;;;;;;5016841;28;20226;-52
2022/02/13 03:35:14;;;;;;;;;;;;;;;;;;5015789;28;19948;-51
2022/02/13 03:37:42;;;;;;;;;;;;;;;;;;5012811;28;19909;-52
2022/02/13 03:40:07;;;;;;;;;;;;;;;;;;5018148;28;19921;-48
2022/02/13 03:42:32;;;;;;;;;;;;;;;;;;5015945;28;19932;-47
2022/02/13 03:44:58;;;;;;;;;;;;;;;;;;5020163;28;20015;-50
2022/02/13 03:47:25;;;;;;;;;;;;;;;;;;5017524;28;19913;-50
2022/02/13 03:49:50;;;;;;;;;;;;;;;;;;5018859;28;19925;-52
2022/02/13 03:52:15;;;;;;;;;;;;;;;;;;5020079;28;19916;-51
2022/02/13 03:54:40;;;;;;;;;;;;;;;;;;5015288;28;19996;-51
2022/02/13 03:57:06;;;;;;;;;;;;;;;;;;5019482;28;19916;-49
2022/02/13 03:59:31;;;;;;;;;;;;;;;;;;5021310;28;19924;-49
2022/02/13 04:01:56;;;;;;;;;;;;;;;;;;5018479;28;19948;-47
2022/02/13 04:04:21;;;;;;;;;;;;;;;;;;5018235;28;19918;-51
2022/02/13 04:06:46;;;;;;;;;;;;;;;;;;5016489;28;19909;-52
2022/02/13 04:09:11;;;;;;;;;;;;;;;;;;5017029;28;20282;-50
2022/02/13 04:11:36;;;;;;;;;;;;;;;;;;5021049;28;19912;-51
2022/02/13 04:14:02;;;;;;;;;;;;;;;;;;5018294;28;19933;-51
2022/02/13 04:16:27;;;;;;;;;;;;;;;;;;5017175;28;20384;-51
2022/02/13 04:18:52;;;;;;;;;;;;;;;;;;5018381;28;19918;-46
2022/02/13 04:21:17;;;;;;;;;;;;;;;;;;5019066;28;19968;-52
2022/02/13 04:23:42;;;;;;;;;;;;;;;;;;5018907;28;19999;-48
2022/02/13 04:26:07;;;;;;;;;;;;;;;;;;5017199;28;19909;-50
2022/02/13 04:28:33;;;;;;;;;;;;;;;;;;5016752;28;19989;-52
2022/02/13 04:30:58;;;;;;;;;;;;;;;;;;5017009;28;19909;-53
2022/02/13 04:33:23;;;;;;;;;;;;;;;;;;5020112;28;20384;-48
2022/02/13 04:35:48;;;;;;;;;;;;;;;;;;5018489;28;19909;-49
2022/02/13 04:38:13;;;;;;;;;;;;;;;;;;5019088;28;19909;-51
2022/02/13 04:40:38;;;;;;;;;;;;;;;;;;5020177;28;19963;-48
2022/02/13 04:43:03;;;;;;;;;;;;;;;;;;5016457;28;20354;-49
2022/02/13 04:45:29;;;;;;;;;;;;;;;;;;5018711;28;20071;-49
2022/02/13 04:47:54;;;;;;;;;;;;;;;;;;5018969;28;20390;-50
2022/02/13 04:50:21;;;;;;;;;;;;;;;;;;5018792;28;19951;-51
2022/02/13 04:52:46;;;;;;;;;;;;;;;;;;5017804;28;19936;-50
2022/02/13 04:55:11;;;;;;;;;;;;;;;;;;5017460;28;19931;-52
2022/02/13 04:57:36;;;;;;;;;;;;;;;;;;5014378;28;20373;-51
2022/02/13 05:00:02;;;;;;;;;;;;;;;;;;5017458;28;19912;-52
2022/02/13 05:02:27;;;;;;;;;;;;;;;;;;5019268;28;19959;-51
2022/02/13 05:04:52;;;;;;;;;;;;;;;;;;5015817;28;19919;-51
2022/02/13 05:07:17;;;;;;;;;;;;;;;;;;5016593;28;19910;-51
2022/02/13 05:09:42;;;;;;;;;;;;;;;;;;5015278;28;19970;-52
2022/02/13 05:12:08;;;;;;;;;;;;;;;;;;5018250;28;19912;-53
2022/02/13 05:14:33;;;;;;;;;;;;;;;;;;5018912;28;19905;-50
2022/02/13 05:16:58;;;;;;;;;;;;;;;;;;5018383;28;19923;-51
2022/02/13 05:19:23;;;;;;;;;;;;;;;;;;5014373;28;19917;-53
2022/02/13 05:21:54;;;;;;;;;;;;;;;;;;5020146;28;19909;-53
2022/02/13 05:24:19;;;;;;;;;;;;;;;;;;5015407;28;19913;-51
2022/02/13 05:26:44;;;;;;;;;;;;;;;;;;5017216;28;20000;-53
2022/02/13 05:29:10;;;;;;;;;;;;;;;;;;5017087;28;19913;-53
2022/02/13 05:31:35;;;;;;;;;;;;;;;;;;5016949;28;19963;-52
2022/02/13 05:34:00;;;;;;;;;;;;;;;;;;5015713;28;20233;-51
2022/02/13 05:36:25;;;;;;;;;;;;;;;;;;5020992;28;19935;-49
2022/02/13 05:38:51;;;;;;;;;;;;;;;;;;5015092;28;20345;-51
2022/02/13 05:41:16;;;;;;;;;;;;;;;;;;5016084;28;19909;-52
2022/02/13 05:43:41;;;;;;;;;;;;;;;;;;5012364;28;19921;-49
2022/02/13 05:46:06;;;;;;;;;;;;;;;;;;5015660;28;20000;-53
2022/02/13 05:48:32;;;;;;;;;;;;;;;;;;5020977;28;20330;-53
2022/02/13 05:50:58;;;;;;;;;;;;;;;;;;5016768;28;19916;-54
2022/02/13 05:53:24;;;;;;;;;;;;;;;;;;5015797;28;19912;-52
2022/02/13 05:55:49;;;;;;;;;;;;;;;;;;5013749;28;19906;-48
2022/02/13 05:58:15;;;;;;;;;;;;;;;;;;5015855;28;20428;-49
2022/02/13 06:00:40;;;;;;;;;;;;;;;;;;5016699;28;19905;-49
2022/02/13 06:03:05;;;;;;;;;;;;;;;;;;5016422;28;20015;-52
2022/02/13 06:05:30;;;;;;;;;;;;;;;;;;5014154;28;19920;-50
2022/02/13 06:07:56;;;;;;;;;;;;;;;;;;5018506;28;19952;-49
2022/02/13 06:10:21;;;;;;;;;;;;;;;;;;5016155;28;19920;-52
2022/02/13 06:12:46;;;;;;;;;;;;;;;;;;5016064;28;19916;-50
2022/02/13 06:15:12;;;;;;;;;;;;;;;;;;5014000;28;19939;-50
2022/02/13 06:17:37;;;;;;;;;;;;;;;;;;5015346;28;20406;-51
2022/02/13 06:20:02;;;;;;;;;;;;;;;;;;5017373;28;19909;-50
2022/02/13 06:22:27;;;;;;;;;;;;;;;;;;5016421;28;19909;-50
2022/02/13 06:24:52;;;;;;;;;;;;;;;;;;5018873;28;20365;-49
2022/02/13 06:27:18;;;;;;;;;;;;;;;;;;5019164;28;19982;-52
2022/02/13 06:29:43;;;;;;;;;;;;;;;;;;5016956;28;19905;-53
2022/02/13 06:32:08;;;;;;;;;;;;;;;;;;5018079;28;19905;-48
2022/02/13 06:34:33;;;;;;;;;;;;;;;;;;5014445;28;20284;-51
2022/02/13 06:36:58;;;;;;;;;;;;;;;;;;5016846;28;19920;-53
2022/02/13 06:39:23;;;;;;;;;;;;;;;;;;5020454;28;20421;-51
2022/02/13 06:41:49;;;;;;;;;;;;;;;;;;5016673;28;19913;-52
2022/02/13 06:44:14;;;;;;;;;;;;;;;;;;5015793;28;19959;-54
2022/02/13 06:46:39;;;;;;;;;;;;;;;;;;5015360;28;19905;-48
2022/02/13 06:49:04;;;;;;;;;;;;;;;;;;5014900;28;19917;-50
2022/02/13 06:51:30;;;;;;;;;;;;;;;;;;5015110;28;19920;-48
2022/02/13 06:53:55;;;;;;;;;;;;;;;;;;5015783;28;20363;-46
2022/02/13 06:56:20;;;;;;;;;;;;;;;;;;5015343;28;20004;-46
2022/02/13 06:58:45;;;;;;;;;;;;;;;;;;5014952;28;19916;-49
2022/02/13 07:01:10;;;;;;;;;;;;;;;;;;5013206;28;19979;-53
2022/02/13 07:03:35;;;;;;;;;;;;;;;;;;5012481;28;20008;-49
2022/02/13 07:06:02;;;;;;;;;;;;;;;;;;5017404;28;19921;-50
2022/02/13 07:08:27;;;;;;;;;;;;;;;;;;5015133;28;19948;-53
2022/02/13 07:10:52;;;;;;;;;;;;;;;;;;5016405;28;20403;-49
2022/02/13 07:13:18;;;;;;;;;;;;;;;;;;5016044;28;19909;-51
2022/02/13 07:15:43;;;;;;;;;;;;;;;;;;5018461;28;19913;-50
2022/02/13 07:18:08;;;;;;;;;;;;;;;;;;5017279;28;20286;-50
2022/02/13 07:20:33;;;;;;;;;;;;;;;;;;5017277;28;19905;-52
2022/02/13 07:22:58;;;;;;;;;;;;;;;;;;5022669;28;19904;-51
2022/02/13 07:25:24;;;;;;;;;;;;;;;;;;5021047;28;20396;-49
2022/02/13 07:27:49;;;;;;;;;;;;;;;;;;5018992;28;19905;-50
2022/02/13 07:30:14;;;;;;;;;;;;;;;;;;5018783;28;19913;-48
2022/02/13 07:32:39;;;;;;;;;;;;;;;;;;5020598;28;20361;-50
2022/02/13 07:35:04;;;;;;;;;;;;;;;;;;5020518;28;19909;-50
2022/02/13 07:37:30;;;;;;;;;;;;;;;;;;5018295;28;19934;-49
2022/02/13 07:39:55;;;;;;;;;;;;;;;;;;5019738;28;19905;-52
2022/02/13 07:42:20;;;;;;;;;;;;;;;;;;5023434;28;19906;-51
2022/02/13 07:44:48;;;;;;;;;;;;;;;;;;5017703;28;20679;-47
2022/02/13 07:47:13;;;;;;;;;;;;;;;;;;5018635;28;20350;-52
2022/02/13 07:49:38;;;;;;;;;;;;;;;;;;5016775;28;20000;-50
2022/02/13 07:52:03;;;;;;;;;;;;;;;;;;5017889;28;20322;-48
2022/02/13 07:54:29;;;;;;;;;;;;;;;;;;5017082;28;19913;-49
2022/02/13 07:56:54;;;;;;;;;;;;;;;;;;5020357;28;20393;-53
2022/02/13 07:59:19;;;;;;;;;;;;;;;;;;5020569;28;20342;-51
2022/02/13 08:01:44;;;;;;;;;;;;;;;;;;5019168;28;19909;-50
2022/02/13 08:04:10;;;;;;;;;;;;;;;;;;5019052;28;19917;-50
2022/02/13 08:06:35;;;;;;;;;;;;;;;;;;5017468;28;20341;-47
2022/02/13 08:09:00;;;;;;;;;;;;;;;;;;5018264;28;19914;-50
2022/02/13 08:11:25;;;;;;;;;;;;;;;;;;5020722;28;19913;-52
2022/02/13 08:13:50;;;;;;;;;;;;;;;;;;5016918;28;20020;-47
2022/02/13 08:16:15;;;;;;;;;;;;;;;;;;5019608;28;20384;-48
2022/02/13 08:18:41;;;;;;;;;;;;;;;;;;5018365;28;19956;-51
2022/02/13 08:21:06;;;;;;;;;;;;;;;;;;5018366;28;19956;-52
2022/02/13 08:23:32;;;;;;;;;;;;;;;;;;5018784;28;20250;-48
2022/02/13 08:25:57;;;;;;;;;;;;;;;;;;5018004;28;20473;-50
2022/02/13 08:28:22;;;;;;;;;;;;;;;;;;5020799;28;19978;-52
2022/02/13 08:30:47;;;;;;;;;;;;;;;;;;5015278;28;19906;-49
2022/02/13 08:33:12;;;;;;;;;;;;;;;;;;5017582;28;20383;-51
2022/02/13 08:35:37;;;;;;;;;;;;;;;;;;5016969;28;19916;-52
2022/02/13 08:38:03;;;;;;;;;;;;;;;;;;5016086;28;20382;-51
2022/02/13 08:40:29;;;;;;;;;;;;;;;;;;5016934;28;19916;-51
2022/02/13 08:42:54;;;;;;;;;;;;;;;;;;5020731;28;19905;-52
2022/02/13 08:45:19;;;;;;;;;;;;;;;;;;5019237;28;20345;-47
2022/02/13 08:47:44;;;;;;;;;;;;;;;;;;5017590;28;19909;-49
2022/02/13 08:50:09;;;;;;;;;;;;;;;;;;5017621;28;19928;-49
2022/02/13 08:52:34;;;;;;;;;;;;;;;;;;5016540;28;20397;-52
2022/02/13 08:54:59;;;;;;;;;;;;;;;;;;5015273;28;19913;-51
2022/02/13 08:57:25;;;;;;;;;;;;;;;;;;5016510;28;20337;-50
2022/02/13 08:59:50;;;;;;;;;;;;;;;;;;5018932;28;19905;-47
2022/02/13 09:02:15;;;;;;;;;;;;;;;;;;5016942;28;19937;-52
2022/02/13 09:04:40;;;;;;;;;;;;;;;;;;5013902;28;19924;-56
2022/02/13 09:07:06;;;;;;;;;;;;;;;;;;5018773;28;19909;-42
2022/02/13 09:09:32;;;;;;;;;;;;;;;;;;5016588;28;19914;-43
2022/02/13 09:11:57;;;;;;;;;;;;;;;;;;5015267;28;19909;-44
2022/02/13 09:14:22;;;;;;;;;;;;;;;;;;5018651;28;19909;-42
2022/02/13 09:16:47;;;;;;;;;;;;;;;;;;5018658;28;19905;-42
2022/02/13 09:19:13;;;;;;;;;;;;;;;;;;5017926;28;19913;-42
2022/02/13 09:21:38;;;;;;;;;;;;;;;;;;5016710;28;19909;-45
2022/02/13 09:24:04;;;;;;;;;;;;;;;;;;5013786;28;19916;-47
2022/02/13 09:26:29;;;;;;;;;;;;;;;;;;5018456;28;20061;-45
2022/02/13 09:28:54;;;;;;;;;;;;;;;;;;5019846;28;19905;-43
2022/02/13 09:31:19;;;;;;;;;;;;;;;;;;5017904;28;20510;-43
2022/02/13 09:33:44;;;;;;;;;;;;;;;;;;5016624;28;20026;-45
2022/02/13 09:36:09;;;;;;;;;;;;;;;;;;5020385;28;20369;-42
2022/02/13 09:38:34;;;;;;;;;;;;;;;;;;5017320;28;20003;-42
2022/02/13 09:41:00;;;;;;;;;;;;;;;;;;5013245;28;19924;-44
2022/02/13 09:43:25;;;;;;;;;;;;;;;;;;5016308;28;20400;-42
2022/02/13 09:45:51;;;;;;;;;;;;;;;;;;5018176;28;20309;-41
2022/02/13 09:48:17;;;;;;;;;;;;;;;;;;5012005;28;20000;-43
2022/02/13 09:50:42;;;;;;;;;;;;;;;;;;5014752;28;20387;-42
2022/02/13 09:53:07;;;;;;;;;;;;;;;;;;5014412;28;20379;-41
2022/02/13 09:55:32;;;;;;;;;;;;;;;;;;5013152;28;19909;-41
2022/02/13 09:58:01;;;;;;;;;;;;;;;;;;5015941;28;19917;-42
2022/02/13 10:00:27;;;;;;;;;;;;;;;;;;5012990;28;20004;-40
2022/02/13 10:02:53;;;;;;;;;;;;;;;;;;5014614;28;19935;-41
2022/02/13 10:05:18;;;;;;;;;;;;;;;;;;5012417;28;19917;-40
2022/02/13 10:07:43;;;;;;;;;;;;;;;;;;5014785;28;19916;-41
2022/02/13 10:10:09;;;;;;;;;;;;;;;;;;5013319;28;20426;-41
2022/02/13 10:12:39;;;;;;;;;;;;;;;;;;5012547;28;20564;-42
2022/02/13 10:15:04;;;;;;;;;;;;;;;;;;5013237;28;19909;-41
2022/02/13 10:17:29;;;;;;;;;;;;;;;;;;5012410;28;19916;-44
2022/02/13 10:19:54;;;;;;;;;;;;;;;;;;5012661;28;19916;-41
2022/02/13 10:22:19;;;;;;;;;;;;;;;;;;5012666;28;20362;-43
2022/02/13 10:24:45;;;;;;;;;;;;;;;;;;5012590;28;19913;-42
2022/02/13 10:27:11;;;;;;;;;;;;;;;;;;5012356;28;19953;-44
2022/02/13 10:29:36;;;;;;;;;;;;;;;;;;5013091;28;20396;-47
2022/02/13 10:32:01;;;;;;;;;;;;;;;;;;5011889;28;19913;-43
2022/02/13 10:34:26;;;;;;;;;;;;;;;;;;5011010;28;19915;-48
2022/02/13 10:36:51;;;;;;;;;;;;;;;;;;5010427;28;19956;-43
2022/02/13 10:39:17;;;;;;;;;;;;;;;;;;5012347;28;19960;-42
2022/02/13 10:41:45;;;;;;;;;;;;;;;;;;5011439;28;20008;-43
2022/02/13 10:44:10;;;;;;;;;;;;;;;;;;5009997;28;19917;-46
2022/02/13 10:46:36;;;;;;;;;;;;;;;;;;5012237;28;19909;-41
2022/02/13 10:49:01;;;;;;;;;;;;;;;;;;5011377;28;19925;-42
2022/02/13 10:51:26;;;;;;;;;;;;;;;;;;5010150;28;19936;-43
2022/02/13 10:53:51;;;;;;;;;;;;;;;;;;5011102;28;19913;-46
2022/02/13 10:56:17;;;;;;;;;;;;;;;;;;5013399;28;19909;-43
2022/02/13 10:58:42;;;;;;;;;;;;;;;;;;5011465;28;20536;-46
2022/02/13 11:01:07;;;;;;;;;;;;;;;;;;5012085;28;19920;-43
2022/02/13 11:03:32;;;;;;;;;;;;;;;;;;5010589;28;19912;-48
2022/02/13 11:06:00;;;;;;;;;;;;;;;;;;5001547;28;19913;-40
2022/02/13 11:08:25;;;;;;;;;;;;;;;;;;4995602;28;19909;-42
2022/02/13 11:10:51;;;;;;;;;;;;;;;;;;4996647;28;20628;-43
2022/02/13 11:13:17;;;;;;;;;;;;;;;;;;4995242;28;20445;-42
2022/02/13 11:15:42;;;;;;;;;;;;;;;;;;4993857;28;19959;-42
2022/02/13 11:18:07;;;;;;;;;;;;;;;;;;4995317;28;20750;-42
2022/02/13 11:20:33;;;;;;;;;;;;;;;;;;4998081;28;19909;-41
2022/02/13 11:22:58;;;;;;;;;;;;;;;;;;5008344;28;20418;-42
2022/02/13 11:25:23;;;;;;;;;;;;;;;;;;5013444;28;19924;-42
2022/02/13 11:27:48;;;;;;;;;;;;;;;;;;5009385;28;19917;-41
2022/02/13 11:30:13;;;;;;;;;;;;;;;;;;5010861;28;20313;-45
2022/02/13 11:32:39;;;;;;;;;;;;;;;;;;5017495;28;19905;-45
2022/02/13 11:35:04;;;;;;;;;;;;;;;;;;5009358;28;19936;-42
2022/02/13 11:37:30;;;;;;;;;;;;;;;;;;5011037;28;20398;-43
2022/02/13 11:39:55;;;;;;;;;;;;;;;;;;5011346;28;19913;-42
2022/02/13 11:42:20;;;;;;;;;;;;;;;;;;5013302;28;19909;-43
2022/02/13 11:44:45;;;;;;;;;;;;;;;;;;5011301;28;20368;-45
2022/02/13 11:47:11;;;;;;;;;;;;;;;;;;5012724;28;19929;-44
2022/02/13 11:49:36;;;;;;;;;;;;;;;;;;5012273;28;19921;-43
2022/02/13 11:52:01;;;;;;;;;;;;;;;;;;5011661;28;19963;-44
2022/02/13 11:54:26;;;;;;;;;;;;;;;;;;5016064;28;20677;-43
2022/02/13 11:56:51;;;;;;;;;;;;;;;;;;5015405;28;20346;-44
2022/02/13 11:59:16;;;;;;;;;;;;;;;;;;5016050;28;19919;-43
2022/02/13 12:01:44;;;;;;;;;;;;;;;;;;5017330;28;19946;-43
2022/02/13 12:04:10;;;;;;;;;;;;;;;;;;5017192;28;19913;-43
2022/02/13 12:06:35;;;;;;;;;;;;;;;;;;5017072;28;20557;-47
2022/02/13 12:09:00;;;;;;;;;;;;;;;;;;5014154;28;19913;-44
2022/02/13 12:11:25;;;;;;;;;;;;;;;;;;5014904;28;19940;-42
2022/02/13 12:13:50;;;;;;;;;;;;;;;;;;5016412;28;19959;-42
2022/02/13 12:16:15;;;;;;;;;;;;;;;;;;5015316;28;20387;-45
2022/02/13 12:18:40;;;;;;;;;;;;;;;;;;5014632;28;19910;-44
2022/02/13 12:21:06;;;;;;;;;;;;;;;;;;5016105;28;19913;-45
2022/02/13 12:23:31;;;;;;;;;;;;;;;;;;5017821;28;20418;-42
2022/02/13 12:25:56;;;;;;;;;;;;;;;;;;5017496;28;20059;-44
2022/02/13 12:28:21;;;;;;;;;;;;;;;;;;5017112;28;20378;-44
2022/02/13 12:30:49;;;;;;;;;;;;;;;;;;5019593;28;20578;-43
2022/02/13 12:33:17;;;;;;;;;;;;;;;;;;5016558;28;20638;-43
2022/02/13 12:35:42;;;;;;;;;;;;;;;;;;5017863;28;20000;-42
2022/02/13 12:38:07;;;;;;;;;;;;;;;;;;5016915;28;20371;-44
2022/02/13 12:40:32;;;;;;;;;;;;;;;;;;5020506;28;19909;-47
2022/02/13 12:42:57;;;;;;;;;;;;;;;;;;5019203;28;19916;-44
2022/02/13 12:45:23;;;;;;;;;;;;;;;;;;5015726;28;19914;-44
2022/02/13 12:47:48;;;;;;;;;;;;;;;;;;5015856;28;19915;-43
2022/02/13 12:50:13;;;;;;;;;;;;;;;;;;5018125;28;20401;-46
2022/02/13 12:52:38;;;;;;;;;;;;;;;;;;5018521;28;19958;-45
2022/02/13 12:55:03;;;;;;;;;;;;;;;;;;5016305;28;19905;-44
2022/02/13 12:57:29;;;;;;;;;;;;;;;;;;5016308;28;20373;-48
2022/02/13 12:59:54;;;;;;;;;;;;;;;;;;5015309;28;20004;-43
2022/02/13 13:02:19;;;;;;;;;;;;;;;;;;5016754;28;19912;-42
2022/02/13 13:04:44;;;;;;;;;;;;;;;;;;5014257;28;20385;-46
2022/02/13 13:07:09;;;;;;;;;;;;;;;;;;5016263;28;19905;-43
2022/02/13 13:09:36;;;;;;;;;;;;;;;;;;5017088;28;20420;-42
2022/02/13 13:12:01;;;;;;;;;;;;;;;;;;5016226;28;19913;-45
2022/02/13 13:14:26;;;;;;;;;;;;;;;;;;5017634;28;19906;-45
2022/02/13 13:16:52;;;;;;;;;;;;;;;;;;5017763;28;20652;-47
2022/02/13 13:19:17;;;;;;;;;;;;;;;;;;5016919;28;19916;-42
2022/02/13 13:21:45;;;;;;;;;;;;;;;;;;5015184;28;20859;-44
2022/02/13 13:24:11;;;;;;;;;;;;;;;;;;5015664;28;20505;-41
2022/02/13 13:26:36;;;;;;;;;;;;;;;;;;5016150;28;19924;-44
2022/02/13 13:29:01;;;;;;;;;;;;;;;;;;5016592;28;19980;-41
2022/02/13 13:31:26;;;;;;;;;;;;;;;;;;5015857;28;20816;-45
2022/02/13 13:33:51;;;;;;;;;;;;;;;;;;5014942;28;19916;-42
2022/02/13 13:36:16;;;;;;;;;;;;;;;;;;5016253;28;19905;-48
2022/02/13 13:38:41;;;;;;;;;;;;;;;;;;5019409;28;20378;-44
2022/02/13 13:41:07;;;;;;;;;;;;;;;;;;5018421;28;19966;-42
2022/02/13 13:43:32;;;;;;;;;;;;;;;;;;5017286;28;20487;-44
2022/02/13 13:45:57;;;;;;;;;;;;;;;;;;5017910;28;19941;-43
2022/02/13 13:48:22;;;;;;;;;;;;;;;;;;5015512;28;19929;-46
2022/02/13 13:50:47;;;;;;;;;;;;;;;;;;5016302;28;19909;-44
2022/02/13 13:53:13;;;;;;;;;;;;;;;;;;5016338;28;20360;-43
2022/02/13 13:55:40;;;;;;;;;;;;;;;;;;5015487;28;19968;-42
2022/02/13 13:58:05;;;;;;;;;;;;;;;;;;5014612;28;20067;-45
2022/02/13 14:00:30;;;;;;;;;;;;;;;;;;5017340;28;20370;-42
2022/02/13 14:02:57;;;;;;;;;;;;;;;;;;5013597;28;19909;-46
2022/02/13 14:05:23;;;;;;;;;;;;;;;;;;5016987;28;19924;-42
2022/02/13 14:07:48;;;;;;;;;;;;;;;;;;5018745;28;19913;-41
2022/02/13 14:10:13;;;;;;;;;;;;;;;;;;5014739;28;19910;-44
2022/02/13 14:12:38;;;;;;;;;;;;;;;;;;5018824;28;19905;-44
2022/02/13 14:15:03;;;;;;;;;;;;;;;;;;5012187;28;20289;-41
2022/02/13 14:17:28;;;;;;;;;;;;;;;;;;5015620;28;19915;-41
2022/02/13 14:19:54;;;;;;;;;;;;;;;;;;5016353;28;20313;-45
2022/02/13 14:22:19;;;;;;;;;;;;;;;;;;5016750;28;20027;-43
2022/02/13 14:24:44;;;;;;;;;;;;;;;;;;5013852;28;20358;-41
2022/02/13 14:27:09;;;;;;;;;;;;;;;;;;5016015;28;19906;-44
2022/02/13 14:29:34;;;;;;;;;;;;;;;;;;5015624;28;20308;-46
2022/02/13 14:32:03;;;;;;;;;;;;;;;;;;5015100;28;20047;-42
2022/02/13 14:34:28;;;;;;;;;;;;;;;;;;5012834;28;19916;-41
2022/02/13 14:36:53;;;;;;;;;;;;;;;;;;5016110;28;19909;-41
2022/02/13 14:39:18;;;;;;;;;;;;;;;;;;5014662;28;19917;-43
2022/02/13 14:41:43;;;;;;;;;;;;;;;;;;5014698;28;19935;-41
2022/02/13 14:44:09;;;;;;;;;;;;;;;;;;5017678;28;20004;-41
2022/02/13 14:46:34;;;;;;;;;;;;;;;;;;5014515;28;19909;-41
2022/02/13 14:49:00;;;;;;;;;;;;;;;;;;5012737;28;19949;-42
2022/02/13 14:51:25;;;;;;;;;;;;;;;;;;5015953;28;19932;-43
2022/02/13 14:53:50;;;;;;;;;;;;;;;;;;5014978;28;20374;-41
2022/02/13 14:56:15;;;;;;;;;;;;;;;;;;5015366;28;19905;-44
2022/02/13 14:58:41;;;;;;;;;;;;;;;;;;5017091;28;19937;-42
2022/02/13 15:01:06;;;;;;;;;;;;;;;;;;5015567;28;19910;-44
2022/02/13 15:03:31;;;;;;;;;;;;;;;;;;5014595;28;19977;-44
2022/02/13 15:05:56;;;;;;;;;;;;;;;;;;5015838;28;19909;-43
2022/02/13 15:08:21;;;;;;;;;;;;;;;;;;5013820;28;19975;-41
2022/02/13 15:10:48;;;;;;;;;;;;;;;;;;5019628;28;19905;-44
2022/02/13 15:13:13;;;;;;;;;;;;;;;;;;5015231;28;19913;-41
2022/02/13 15:15:38;;;;;;;;;;;;;;;;;;5014484;28;19912;-44
2022/02/13 15:18:03;;;;;;;;;;;;;;;;;;5015283;28;20007;-41
2022/02/13 15:20:28;;;;;;;;;;;;;;;;;;5014557;28;19908;-44
2022/02/13 15:22:53;;;;;;;;;;;;;;;;;;5016007;28;19940;-42
2022/02/13 15:25:19;;;;;;;;;;;;;;;;;;5016281;28;19952;-43
2022/02/13 15:27:44;;;;;;;;;;;;;;;;;;5015193;28;20024;-47
2022/02/13 15:30:09;;;;;;;;;;;;;;;;;;5014629;28;20172;-41
2022/02/13 15:32:34;;;;;;;;;;;;;;;;;;5016940;28;19988;-42
2022/02/13 15:34:59;;;;;;;;;;;;;;;;;;5017224;28;20351;-41
2022/02/13 15:37:24;;;;;;;;;;;;;;;;;;5018274;28;19949;-46
2022/02/13 15:39:50;;;;;;;;;;;;;;;;;;5017318;28;19917;-44
2022/02/13 15:42:15;;;;;;;;;;;;;;;;;;5018964;28;20249;-41
2022/02/13 15:44:40;;;;;;;;;;;;;;;;;;5015199;28;20722;-43
2022/02/13 15:47:05;;;;;;;;;;;;;;;;;;5020470;28;19945;-40
2022/02/13 15:49:30;;;;;;;;;;;;;;;;;;5017816;28;20386;-40
2022/02/13 15:51:55;;;;;;;;;;;;;;;;;;5019414;28;19913;-43
2022/02/13 15:54:21;;;;;;;;;;;;;;;;;;5018256;28;19908;-45
2022/02/13 15:56:46;;;;;;;;;;;;;;;;;;5019233;28;20038;-41
2022/02/13 15:59:11;;;;;;;;;;;;;;;;;;5018231;28;19920;-42
2022/02/13 16:01:36;;;;;;;;;;;;;;;;;;5016243;28;19905;-41
2022/02/13 16:04:01;;;;;;;;;;;;;;;;;;5019098;28;20360;-44
2022/02/13 16:06:26;;;;;;;;;;;;;;;;;;5021365;28;19916;-43
2022/02/13 16:08:51;;;;;;;;;;;;;;;;;;5020323;28;20421;-40
2022/02/13 16:11:18;;;;;;;;;;;;;;;;;;5017811;28;19940;-43
2022/02/13 16:13:44;;;;;;;;;;;;;;;;;;5017458;28;19982;-46
2022/02/13 16:16:09;;;;;;;;;;;;;;;;;;5016233;28;19913;-49
2022/02/13 16:18:34;;;;;;;;;;;;;;;;;;5014880;28;20311;-46
2022/02/13 16:20:59;;;;;;;;;;;;;;;;;;5018318;28;19906;-44
2022/02/13 16:26:09;;;;;;;;;;;;;;;;;;5017345;28;20002;-44
2022/02/13 16:28:35;;;;;;;;;;;;;;;;;;5017214;28;19909;-42
2022/02/13 16:31:00;;;;;;;;;;;;;;;;;;5016611;28;19909;-46
2022/02/13 16:33:25;;;;;;;;;;;;;;;;;;5015443;28;19909;-42
2022/02/13 16:35:50;;;;;;;;;;;;;;;;;;5016725;28;19905;-42